Time;durP1;ratioP1;P1;durP2;ratioP2;P2;SDS_P1;SDS_P2;PMS_P1;PMS_P2;Temp;Humidity;BMP_temperature;BMP_pressure;BME280_temperature;BME280_humidity;BME280_pressure;Samples;Min_cycle;Max_cycle;Signal;HPM_P1;HPM_P2
2023/07/16 00:00:30;;;;;;;0.00;0.00;;;15.70;99.90;;;;;;4995786;28;20134;-67
2023/07/16 00:02:56;;;;;;;0.15;0.10;;;15.70;99.90;;;;;;5002048;28;20049;-67
2023/07/16 00:05:22;;;;;;;0.98;0.15;;;15.70;99.90;;;;;;5001056;28;20080;-67
2023/07/16 00:07:47;;;;;;;0.55;0.10;;;15.70;99.90;;;;;;5003223;28;20030;-67
2023/07/16 00:10:13;;;;;;;0.90;0.00;;;15.70;99.90;;;;;;4993707;28;20109;-67
2023/07/16 00:12:39;;;;;;;0.05;0.03;;;15.60;99.90;;;;;;4999931;28;20546;-67
2023/07/16 00:15:06;;;;;;;0.10;0.00;;;15.60;99.90;;;;;;5000088;28;20067;-67
2023/07/16 00:17:33;;;;;;;0.00;0.00;;;15.60;99.90;;;;;;5005031;28;20394;-67
2023/07/16 00:19:58;;;;;;;0.17;0.10;;;15.70;99.90;;;;;;4992470;28;20525;-67
2023/07/16 00:22:24;;;;;;;0.00;0.00;;;15.70;99.90;;;;;;4995594;28;20126;-67
2023/07/16 00:24:50;;;;;;;0.00;0.00;;;15.70;99.90;;;;;;5001420;28;20038;-67
2023/07/16 00:27:15;;;;;;;0.00;0.00;;;15.70;99.90;;;;;;4998378;28;20038;-67
2023/07/16 00:29:41;;;;;;;0.20;0.10;;;15.70;99.90;;;;;;4996211;28;20490;-67
2023/07/16 00:32:07;;;;;;;1.33;0.10;;;15.70;99.90;;;;;;4994548;28;20422;-67
2023/07/16 00:34:33;;;;;;;0.00;0.00;;;15.70;99.90;;;;;;5000257;28;20037;-67
2023/07/16 00:37:01;;;;;;;0.75;0.10;;;15.60;99.90;;;;;;5006465;28;20044;-67
2023/07/16 00:39:29;;;;;;;0.00;0.00;;;15.60;99.90;;;;;;5000836;28;20125;-67
2023/07/16 00:41:56;;;;;;;0.10;0.03;;;15.60;99.90;;;;;;4996649;28;20359;-67
2023/07/16 00:44:22;;;;;;;0.30;0.10;;;15.50;99.90;;;;;;5004388;28;20026;-67
2023/07/16 00:46:49;;;;;;;0.35;0.00;;;15.50;99.90;;;;;;5000748;28;20046;-67
2023/07/16 00:49:15;;;;;;;0.55;0.05;;;15.50;99.90;;;;;;4999697;28;20038;-67
2023/07/16 00:51:42;;;;;;;0.20;0.10;;;15.50;99.90;;;;;;5006272;28;20069;-67
2023/07/16 00:54:08;;;;;;;0.10;0.00;;;15.50;99.90;;;;;;5006253;28;20482;-68
2023/07/16 00:56:34;;;;;;;0.00;0.00;;;15.40;99.90;;;;;;5003644;28;20050;-67
2023/07/16 00:59:00;;;;;;;0.32;0.08;;;15.40;99.90;;;;;;5001009;28;20074;-68
2023/07/16 01:01:26;;;;;;;0.13;0.00;;;15.40;99.90;;;;;;5005919;28;20433;-67
2023/07/16 01:03:51;;;;;;;2.40;0.30;;;15.40;99.90;;;;;;5007131;28;20049;-67
2023/07/16 01:06:41;;;;;;;0.28;0.05;;;15.40;99.90;;;;;;5007426;28;20076;-67
2023/07/16 01:09:18;;;;;;;0.20;0.00;;;15.30;99.90;;;;;;5003771;28;20054;-67
2023/07/16 01:11:45;;;;;;;0.00;0.00;;;15.30;99.90;;;;;;5003688;28;20410;-67
2023/07/16 01:14:13;;;;;;;0.00;0.00;;;15.30;99.90;;;;;;5006460;28;20064;-67
2023/07/16 01:16:38;;;;;;;0.50;0.10;;;15.30;99.90;;;;;;5005956;28;20075;-67
2023/07/16 01:19:05;;;;;;;0.00;0.00;;;15.30;99.90;;;;;;5007801;28;20029;-67
2023/07/16 01:22:14;;;;;;;0.22;0.10;;;15.30;99.90;;;;;;5005579;28;20089;-67
2023/07/16 01:24:57;;;;;;;0.00;0.00;;;15.30;99.90;;;;;;5003355;28;20398;-67
2023/07/16 01:27:35;;;;;;;0.00;0.00;;;15.30;99.90;;;;;;5009020;28;20069;-67
2023/07/16 01:30:04;;;;;;;0.20;0.00;;;15.40;99.90;;;;;;5006970;28;20391;-67
2023/07/16 01:32:31;;;;;;;0.10;0.10;;;15.40;99.90;;;;;;5003119;28;20513;-67
2023/07/16 01:34:57;;;;;;;0.20;0.10;;;15.40;99.90;;;;;;5006085;28;20034;-67
2023/07/16 01:37:24;;;;;;;0.15;0.10;;;15.50;99.90;;;;;;4997531;28;20045;-67
2023/07/16 01:39:50;;;;;;;0.25;0.10;;;15.50;99.90;;;;;;5005226;28;20038;-67
2023/07/16 01:42:15;;;;;;;0.50;0.30;;;15.60;99.90;;;;;;5000192;28;20527;-68
2023/07/16 01:44:41;;;;;;;1.17;0.30;;;15.60;99.90;;;;;;5004131;28;20130;-67
2023/07/16 01:47:24;;;;;;;0.10;0.00;;;15.60;99.90;;;;;;4998522;28;20517;-67
2023/07/16 01:49:50;;;;;;;0.52;0.10;;;15.60;99.90;;;;;;5003912;28;20493;-67
2023/07/16 01:52:15;;;;;;;2.38;0.10;;;15.60;99.90;;;;;;5003016;28;20117;-67
2023/07/16 01:54:41;;;;;;;0.10;0.10;;;15.70;99.90;;;;;;5000487;28;20038;-67
2023/07/16 01:57:07;;;;;;;0.95;0.30;;;15.60;99.90;;;;;;5004907;28;20053;-67
2023/07/16 01:59:32;;;;;;;0.38;0.05;;;15.70;99.90;;;;;;5006080;28;20074;-67
2023/07/16 02:01:58;;;;;;;0.57;0.15;;;15.70;99.90;;;;;;5003286;28;20038;-68
2023/07/16 02:04:24;;;;;;;0.30;0.15;;;15.80;99.90;;;;;;5009989;28;20068;-67
2023/07/16 02:06:49;;;;;;;1.40;0.40;;;15.80;99.90;;;;;;4992130;28;20119;-67
2023/07/16 02:09:15;;;;;;;0.30;0.20;;;15.80;99.90;;;;;;5005105;28;20041;-67
2023/07/16 02:11:41;;;;;;;0.30;0.20;;;15.80;99.90;;;;;;5005456;28;20049;-67
2023/07/16 02:14:06;;;;;;;0.00;0.00;;;15.80;99.90;;;;;;4999821;28;20038;-67
2023/07/16 02:16:32;;;;;;;0.10;0.00;;;15.80;99.90;;;;;;5007067;28;20034;-67
2023/07/16 02:18:58;;;;;;;0.45;0.30;;;15.90;99.90;;;;;;5005466;28;20034;-68
2023/07/16 02:21:23;;;;;;;0.50;0.20;;;15.80;99.90;;;;;;5001183;28;20383;-67
2023/07/16 02:23:49;;;;;;;0.43;0.30;;;15.90;99.90;;;;;;5002530;28;20054;-67
2023/07/16 02:26:15;;;;;;;0.20;0.10;;;15.90;99.90;;;;;;4997581;28;20125;-67
2023/07/16 02:28:40;;;;;;;0.28;0.10;;;15.90;99.90;;;;;;5003785;28;20037;-67
2023/07/16 02:31:06;;;;;;;0.05;0.05;;;15.90;99.90;;;;;;5008260;28;20083;-67
2023/07/16 02:33:32;;;;;;;0.10;0.00;;;15.90;99.90;;;;;;4998007;28;20435;-67
2023/07/16 02:35:57;;;;;;;0.20;0.10;;;15.90;99.90;;;;;;5000337;28;20045;-66
2023/07/16 02:38:23;;;;;;;0.15;0.10;;;15.90;99.90;;;;;;5006282;28;20115;-67
2023/07/16 02:40:49;;;;;;;0.32;0.10;;;15.80;99.90;;;;;;5000625;28;20045;-67
2023/07/16 02:43:15;;;;;;;0.77;0.40;;;15.80;99.90;;;;;;5000613;28;20038;-67
2023/07/16 02:45:41;;;;;;;0.63;0.25;;;15.80;99.90;;;;;;5005057;28;20513;-67
2023/07/16 02:48:07;;;;;;;0.10;0.10;;;15.80;99.90;;;;;;5004250;28;20398;-67
2023/07/16 02:50:37;;;;;;;0.45;0.05;;;15.70;99.90;;;;;;5001106;28;20504;-67
2023/07/16 02:53:06;;;;;;;0.22;0.03;;;15.70;99.90;;;;;;4996935;28;20044;-67
2023/07/16 02:55:34;;;;;;;0.38;0.10;;;15.60;99.90;;;;;;4998610;28;20041;-67
2023/07/16 02:58:04;;;;;;;0.10;0.10;;;15.60;99.90;;;;;;5002738;28;20065;-67
2023/07/16 03:00:33;;;;;;;0.30;0.30;;;15.60;99.90;;;;;;5001398;28;20402;-67
2023/07/16 03:02:59;;;;;;;0.30;0.10;;;15.60;99.90;;;;;;5000771;28;20038;-67
2023/07/16 03:05:26;;;;;;;0.20;0.10;;;15.60;99.90;;;;;;5000138;28;20466;-67
2023/07/16 03:07:52;;;;;;;0.10;0.10;;;15.60;99.90;;;;;;5006592;28;20034;-67
2023/07/16 03:10:18;;;;;;;0.65;0.10;;;15.60;99.90;;;;;;4994188;28;20169;-67
2023/07/16 03:12:43;;;;;;;0.08;0.08;;;15.60;99.90;;;;;;4999106;28;20125;-67
2023/07/16 03:15:10;;;;;;;0.63;0.20;;;15.60;99.90;;;;;;5004828;28;20093;-67
2023/07/16 03:17:35;;;;;;;0.17;0.00;;;15.60;99.90;;;;;;5004805;28;20037;-67
2023/07/16 03:20:03;;;;;;;0.80;0.32;;;15.60;99.90;;;;;;4998473;28;20044;-67
2023/07/16 03:22:29;;;;;;;0.10;0.00;;;15.50;99.90;;;;;;4998922;28;20035;-67
2023/07/16 03:24:54;;;;;;;0.43;0.20;;;15.50;99.90;;;;;;5001596;28;20049;-67
2023/07/16 03:27:20;;;;;;;0.20;0.10;;;15.50;99.90;;;;;;5000816;28;20113;-67
2023/07/16 03:29:46;;;;;;;0.73;0.55;;;15.50;99.90;;;;;;4999224;28;20072;-67
2023/07/16 03:32:11;;;;;;;0.00;0.00;;;15.50;99.90;;;;;;4999107;28;20540;-67
2023/07/16 03:34:37;;;;;;;0.20;0.10;;;15.50;99.90;;;;;;5001149;28;20031;-67
2023/07/16 03:37:03;;;;;;;0.17;0.13;;;15.40;99.90;;;;;;4998795;28;20125;-67
2023/07/16 03:39:28;;;;;;;0.22;0.13;;;15.40;99.90;;;;;;4996766;28;20434;-67
2023/07/16 03:41:54;;;;;;;0.45;0.20;;;15.50;99.90;;;;;;4997168;28;20504;-67
2023/07/16 03:44:20;;;;;;;0.68;0.22;;;15.50;99.90;;;;;;5002644;28;20046;-67
2023/07/16 03:46:46;;;;;;;0.25;0.20;;;15.50;99.90;;;;;;4997625;28;20042;-67
2023/07/16 03:49:12;;;;;;;0.55;0.20;;;15.50;99.90;;;;;;5005320;28;20049;-67
2023/07/16 03:51:37;;;;;;;0.60;0.20;;;15.50;99.90;;;;;;4998828;28;20121;-67
2023/07/16 03:54:03;;;;;;;0.43;0.20;;;15.50;99.90;;;;;;5002352;28;20066;-67
2023/07/16 03:56:29;;;;;;;1.23;0.30;;;15.50;99.90;;;;;;4998915;28;20479;-67
2023/07/16 03:58:54;;;;;;;0.43;0.15;;;15.50;99.90;;;;;;4998336;28;20039;-67
2023/07/16 04:01:20;;;;;;;0.28;0.17;;;15.50;99.90;;;;;;5000432;28;20039;-67
2023/07/16 04:03:46;;;;;;;0.25;0.10;;;15.50;99.90;;;;;;5003842;28;20451;-67
2023/07/16 04:06:12;;;;;;;0.38;0.15;;;15.50;99.90;;;;;;4999745;28;20054;-67
2023/07/16 04:08:38;;;;;;;0.20;0.08;;;15.50;99.90;;;;;;5002853;28;20045;-67
2023/07/16 04:11:05;;;;;;;0.20;0.10;;;15.50;99.90;;;;;;4999548;28;20046;-67
2023/07/16 04:13:31;;;;;;;0.38;0.28;;;15.50;99.90;;;;;;5003363;28;20045;-67
2023/07/16 04:15:57;;;;;;;0.40;0.20;;;15.60;99.90;;;;;;4995536;28;20271;-67
2023/07/16 04:18:25;;;;;;;0.35;0.10;;;15.50;99.90;;;;;;5001060;28;20030;-67
2023/07/16 04:20:52;;;;;;;0.55;0.30;;;15.60;99.90;;;;;;5001264;28;20045;-67
2023/07/16 04:23:18;;;;;;;1.38;0.22;;;15.60;99.90;;;;;;5013072;28;20137;-67
2023/07/16 04:25:44;;;;;;;0.10;0.10;;;15.70;99.90;;;;;;4999925;28;20105;-67
2023/07/16 04:28:10;;;;;;;0.25;0.10;;;15.70;99.90;;;;;;4996062;28;20105;-67
2023/07/16 04:30:37;;;;;;;0.50;0.10;;;15.70;99.90;;;;;;4999623;28;20034;-67
2023/07/16 04:33:03;;;;;;;0.35;0.20;;;15.70;99.90;;;;;;5001526;28;20459;-67
2023/07/16 04:35:29;;;;;;;0.15;0.13;;;15.80;99.90;;;;;;4997139;28;20041;-67
2023/07/16 04:37:55;;;;;;;0.10;0.08;;;15.90;99.90;;;;;;5000923;28;20074;-67
2023/07/16 04:40:21;;;;;;;2.78;0.17;;;15.90;99.90;;;;;;4998510;28;20524;-67
2023/07/16 04:42:46;;;;;;;0.40;0.20;;;16.00;99.90;;;;;;5000433;28;20049;-67
2023/07/16 04:45:12;;;;;;;1.38;0.25;;;16.00;99.90;;;;;;4994819;28;20121;-68
2023/07/16 04:47:38;;;;;;;0.75;0.30;;;16.10;99.90;;;;;;4996634;28;20077;-67
2023/07/16 04:50:04;;;;;;;0.20;0.15;;;16.10;99.90;;;;;;5003736;28;20466;-67
2023/07/16 04:52:30;;;;;;;0.70;0.30;;;16.20;99.90;;;;;;5005444;28;20050;-67
2023/07/16 04:54:56;;;;;;;1.27;0.10;;;16.20;99.90;;;;;;5005121;28;20160;-67
2023/07/16 04:57:22;;;;;;;0.40;0.20;;;16.30;99.90;;;;;;5003063;28;20100;-67
2023/07/16 04:59:47;;;;;;;0.20;0.17;;;16.40;99.90;;;;;;5007235;28;20063;-68
2023/07/16 05:02:15;;;;;;;0.20;0.10;;;16.70;99.90;;;;;;5006458;28;20121;-68
2023/07/16 05:04:41;;;;;;;0.50;0.17;;;17.20;99.90;;;;;;5004601;28;20117;-68
2023/07/16 05:07:07;;;;;;;0.10;0.10;;;17.60;99.90;;;;;;5003528;28;20499;-68
2023/07/16 05:09:33;;;;;;;0.85;0.40;;;18.00;99.90;;;;;;5005895;28;20046;-68
2023/07/16 05:11:58;;;;;;;0.40;0.03;;;18.00;99.90;;;;;;5003634;28;20124;-68
2023/07/16 05:14:28;;;;;;;1.13;0.17;;;18.00;99.90;;;;;;5003497;28;20038;-68
2023/07/16 05:16:54;;;;;;;0.35;0.20;;;18.20;99.90;;;;;;5003679;28;20052;-68
2023/07/16 05:19:19;;;;;;;0.10;0.08;;;18.50;99.90;;;;;;5007397;28;20057;-68
2023/07/16 05:21:45;;;;;;;0.20;0.10;;;18.60;99.90;;;;;;5005881;28;20041;-67
2023/07/16 05:24:11;;;;;;;0.63;0.10;;;18.50;99.90;;;;;;4986464;28;21819;-68
2023/07/16 05:26:37;;;;;;;1.75;0.55;;;18.50;99.90;;;;;;4988366;28;20041;-68
2023/07/16 05:29:03;;;;;;;1.92;0.32;;;18.70;99.90;;;;;;5010839;28;20045;-68
2023/07/16 05:31:29;;;;;;;0.22;0.10;;;18.60;99.90;;;;;;5006675;28;20042;-68
2023/07/16 05:33:55;;;;;;;0.90;0.68;;;18.50;99.90;;;;;;5008287;28;20038;-68
2023/07/16 05:36:20;;;;;;;0.30;0.15;;;18.40;99.90;;;;;;5005797;28;20041;-68
2023/07/16 05:38:46;;;;;;;0.30;0.00;;;18.30;99.90;;;;;;5007907;28;20528;-68
2023/07/16 05:41:12;;;;;;;1.20;0.10;;;18.20;99.90;;;;;;5007433;28;20033;-68
2023/07/16 05:43:37;;;;;;;0.55;0.20;;;18.20;99.90;;;;;;5002312;28;20042;-68
2023/07/16 05:46:05;;;;;;;0.77;0.50;;;18.20;99.90;;;;;;5004732;28;20454;-68
2023/07/16 05:48:31;;;;;;;0.40;0.17;;;18.20;99.90;;;;;;5007556;28;20092;-68
2023/07/16 05:50:56;;;;;;;0.63;0.20;;;18.20;99.90;;;;;;5005433;28;20117;-68
2023/07/16 05:53:22;;;;;;;2.00;0.30;;;18.30;99.90;;;;;;5003947;28;20109;-67
2023/07/16 05:55:52;;;;;;;0.20;0.10;;;18.30;99.90;;;;;;5006492;28;20034;-68
2023/07/16 05:58:17;;;;;;;0.22;0.10;;;18.30;99.90;;;;;;5007027;28;20036;-69
2023/07/16 06:00:43;;;;;;;0.88;0.20;;;18.40;99.90;;;;;;5007752;28;20093;-68
2023/07/16 06:03:09;;;;;;;0.40;0.25;;;18.50;99.90;;;;;;5002126;28;20042;-68
2023/07/16 06:05:36;;;;;;;0.40;0.22;;;18.50;99.90;;;;;;5007495;28;20099;-68
2023/07/16 06:08:02;;;;;;;0.28;0.20;;;18.60;99.90;;;;;;5005501;28;20038;-68
2023/07/16 06:10:28;;;;;;;0.20;0.10;;;18.60;99.90;;;;;;5004363;28;20042;-68
2023/07/16 06:12:54;;;;;;;0.25;0.17;;;18.70;99.90;;;;;;5006534;28;20069;-70
2023/07/16 06:15:20;;;;;;;1.75;0.30;;;18.70;99.90;;;;;;5005693;28;20044;-68
2023/07/16 06:17:45;;;;;;;0.20;0.20;;;18.70;99.90;;;;;;5009272;28;20159;-68
2023/07/16 06:20:11;;;;;;;0.60;0.20;;;18.80;99.90;;;;;;5002130;28;20130;-69
2023/07/16 06:22:37;;;;;;;0.45;0.20;;;18.80;99.90;;;;;;5004554;28;20045;-68
2023/07/16 06:25:04;;;;;;;0.15;0.10;;;18.90;99.90;;;;;;5006137;28;20034;-69
2023/07/16 06:27:30;;;;;;;1.55;0.60;;;19.00;99.90;;;;;;5006102;28;20054;-70
2023/07/16 06:29:56;;;;;;;0.30;0.28;;;19.00;99.90;;;;;;5004297;28;20038;-69
2023/07/16 06:32:21;;;;;;;0.17;0.03;;;19.00;99.90;;;;;;5007088;28;20072;-69
2023/07/16 06:34:47;;;;;;;1.50;0.55;;;19.10;99.90;;;;;;5006810;28;20126;-70
2023/07/16 06:37:13;;;;;;;2.47;0.32;;;19.20;99.90;;;;;;5009724;28;20049;-69
2023/07/16 06:39:38;;;;;;;0.30;0.10;;;19.30;99.90;;;;;;5005079;28;20436;-70
2023/07/16 06:42:04;;;;;;;0.30;0.20;;;19.30;99.90;;;;;;5004604;28;20038;-69
2023/07/16 06:44:30;;;;;;;0.32;0.17;;;19.40;99.90;;;;;;5005007;28;20092;-68
2023/07/16 06:46:57;;;;;;;6.45;0.65;;;19.40;99.90;;;;;;5005570;28;20348;-69
2023/07/16 06:49:23;;;;;;;0.85;0.52;;;19.50;99.90;;;;;;5003788;28;20111;-70
2023/07/16 06:51:49;;;;;;;0.20;0.10;;;19.60;99.90;;;;;;5008499;28;20049;-69
2023/07/16 06:54:15;;;;;;;0.82;0.20;;;19.60;99.90;;;;;;5006023;28;20391;-69
2023/07/16 06:56:40;;;;;;;0.40;0.22;;;19.70;99.90;;;;;;5005576;28;20030;-69
2023/07/16 06:59:06;;;;;;;0.70;0.30;;;19.80;99.90;;;;;;5005440;28;20497;-70
2023/07/16 07:01:32;;;;;;;0.30;0.10;;;19.80;99.90;;;;;;5004656;28;20084;-70
2023/07/16 07:03:58;;;;;;;2.15;0.75;;;19.90;99.90;;;;;;5004705;28;20041;-70
2023/07/16 07:06:23;;;;;;;0.47;0.30;;;19.80;99.90;;;;;;5004871;28;20060;-70
2023/07/16 07:08:49;;;;;;;0.60;0.40;;;19.80;99.90;;;;;;5002930;28;20046;-70
2023/07/16 07:11:15;;;;;;;0.15;0.10;;;19.80;99.90;;;;;;5006368;28;20490;-70
2023/07/16 07:13:42;;;;;;;1.35;0.38;;;19.80;99.90;;;;;;5006732;28;20485;-70
2023/07/16 07:16:07;;;;;;;0.65;0.30;;;19.90;99.90;;;;;;5004834;28;20104;-70
2023/07/16 07:18:33;;;;;;;0.70;0.25;;;20.00;99.90;;;;;;5003904;28;20046;-70
2023/07/16 07:20:59;;;;;;;0.40;0.30;;;19.90;99.90;;;;;;5005466;28;20096;-70
2023/07/16 07:23:25;;;;;;;0.85;0.38;;;20.00;99.90;;;;;;5004759;28;20041;-70
2023/07/16 07:25:51;;;;;;;0.73;0.10;;;20.00;99.90;;;;;;5002972;28;20038;-70
2023/07/16 07:28:18;;;;;;;1.20;0.10;;;20.10;99.90;;;;;;5002469;28;20037;-70
2023/07/16 07:30:44;;;;;;;1.27;0.80;;;20.20;99.90;;;;;;5004647;28;20053;-69
2023/07/16 07:33:11;;;;;;;0.88;0.63;;;20.20;99.90;;;;;;5007070;28;20038;-70
2023/07/16 07:35:37;;;;;;;1.35;0.55;;;20.10;99.90;;;;;;5005080;28;20030;-69
2023/07/16 07:38:02;;;;;;;0.73;0.45;;;20.10;99.90;;;;;;5000011;28;20057;-69
2023/07/16 07:40:28;;;;;;;0.40;0.13;;;20.10;99.90;;;;;;5005250;28;20041;-70
2023/07/16 07:42:54;;;;;;;0.40;0.20;;;20.20;99.90;;;;;;5007109;28;20487;-69
2023/07/16 07:45:20;;;;;;;8.48;5.82;;;20.40;99.90;;;;;;5006467;28;20040;-69
2023/07/16 07:47:45;;;;;;;1.95;1.08;;;20.50;99.90;;;;;;4999738;28;20041;-69
2023/07/16 07:50:11;;;;;;;0.75;0.50;;;20.50;99.90;;;;;;5006295;28;20120;-69
2023/07/16 07:52:37;;;;;;;0.73;0.43;;;20.50;99.90;;;;;;5001263;28;20034;-69
2023/07/16 07:55:03;;;;;;;0.52;0.20;;;20.60;99.90;;;;;;5004398;28;20041;-69
2023/07/16 07:57:29;;;;;;;0.75;0.40;;;20.80;99.90;;;;;;4993867;28;20042;-70
2023/07/16 07:59:58;;;;;;;0.20;0.10;;;21.00;99.90;;;;;;4999906;28;20498;-70
2023/07/16 08:02:26;;;;;;;0.82;0.30;;;21.10;99.90;;;;;;5002661;28;20033;-70
2023/07/16 08:04:53;;;;;;;0.65;0.30;;;21.20;99.90;;;;;;4995208;28;20073;-70
2023/07/16 08:07:19;;;;;;;0.30;0.20;;;21.20;99.90;;;;;;4997152;28;20054;-70
2023/07/16 08:09:45;;;;;;;0.75;0.20;;;21.20;99.90;;;;;;5000765;28;20049;-70
2023/07/16 08:12:11;;;;;;;0.77;0.45;;;21.20;99.90;;;;;;4998156;28;20061;-70
2023/07/16 08:14:37;;;;;;;0.95;0.32;;;21.20;99.90;;;;;;4998066;28;20042;-70
2023/07/16 08:17:03;;;;;;;0.80;0.30;;;21.10;99.90;;;;;;5004168;28;20049;-69
2023/07/16 08:19:28;;;;;;;0.15;0.10;;;21.00;99.90;;;;;;5000065;28;20046;-70
2023/07/16 08:21:54;;;;;;;0.95;0.45;;;21.10;99.90;;;;;;5001980;28;20034;-70
2023/07/16 08:24:20;;;;;;;0.63;0.20;;;21.10;99.90;;;;;;5002484;28;20172;-69
2023/07/16 08:26:45;;;;;;;0.22;0.20;;;21.10;99.90;;;;;;4991880;28;20042;-69
2023/07/16 08:29:11;;;;;;;1.45;0.35;;;21.10;99.90;;;;;;5002871;28;20101;-69
2023/07/16 08:31:37;;;;;;;0.57;0.22;;;21.10;99.90;;;;;;4998424;28;20133;-70
2023/07/16 08:34:04;;;;;;;0.20;0.10;;;21.00;99.90;;;;;;5001661;28;20398;-70
2023/07/16 08:36:30;;;;;;;3.08;0.60;;;21.00;99.90;;;;;;4999050;28;20046;-70
2023/07/16 08:38:55;;;;;;;0.20;0.10;;;20.90;99.90;;;;;;5001811;28;20532;-70
2023/07/16 08:41:21;;;;;;;0.45;0.20;;;20.90;99.90;;;;;;4998868;28;20076;-70
2023/07/16 08:43:47;;;;;;;0.47;0.20;;;20.90;99.90;;;;;;4997985;28;20042;-70
2023/07/16 08:46:15;;;;;;;0.70;0.35;;;20.90;99.90;;;;;;4981050;28;20375;-70
2023/07/16 08:48:41;;;;;;;0.38;0.15;;;20.90;99.90;;;;;;5002310;28;20516;-70
2023/07/16 08:51:08;;;;;;;1.98;0.32;;;21.00;99.90;;;;;;5003176;28;20053;-70
2023/07/16 08:53:34;;;;;;;0.57;0.38;;;21.00;99.90;;;;;;4994083;28;20486;-70
2023/07/16 08:56:02;;;;;;;0.55;0.40;;;21.20;99.90;;;;;;5000368;28;20045;-70
2023/07/16 08:58:28;;;;;;;0.57;0.17;;;21.50;99.90;;;;;;5008516;28;20137;-70
2023/07/16 09:00:55;;;;;;;0.20;0.10;;;21.70;99.90;;;;;;5008978;28;20414;-70
2023/07/16 09:03:21;;;;;;;0.45;0.10;;;21.80;99.90;;;;;;5008889;28;20410;-70
2023/07/16 09:05:47;;;;;;;0.70;0.20;;;21.70;99.90;;;;;;5007513;28;20053;-70
2023/07/16 09:08:13;;;;;;;0.35;0.32;;;21.80;99.90;;;;;;5010045;28;20077;-70
2023/07/16 09:10:43;;;;;;;0.30;0.20;;;21.90;99.90;;;;;;5007132;28;20043;-71
2023/07/16 09:13:09;;;;;;;0.00;0.00;;;21.90;99.90;;;;;;5000669;28;20128;-70
2023/07/16 09:15:34;;;;;;;0.50;0.28;;;22.00;99.90;;;;;;5008760;28;20573;-70
2023/07/16 09:18:00;;;;;;;0.47;0.30;;;22.00;99.90;;;;;;5008292;28;20050;-70
2023/07/16 09:20:30;;;;;;;0.43;0.15;;;22.00;99.90;;;;;;5006898;28;20573;-71
2023/07/16 09:22:57;;;;;;;2.15;0.30;;;22.00;99.90;;;;;;5008374;28;20042;-70
2023/07/16 09:25:29;;;;;;;1.27;0.55;;;22.00;99.90;;;;;;5007894;28;20044;-70
2023/07/16 09:27:57;;;;;;;0.47;0.10;;;21.90;99.90;;;;;;5018981;28;20038;-70
2023/07/16 09:30:23;;;;;;;0.43;0.40;;;22.00;99.90;;;;;;5005748;28;20038;-70
2023/07/16 09:32:49;;;;;;;0.63;0.30;;;22.00;99.90;;;;;;5009003;28;20045;-70
2023/07/16 09:35:16;;;;;;;0.63;0.28;;;21.80;99.90;;;;;;5006939;28;20041;-70
2023/07/16 09:37:43;;;;;;;0.65;0.45;;;21.70;99.90;;;;;;5004981;28;20034;-70
2023/07/16 09:40:10;;;;;;;0.20;0.10;;;21.70;99.90;;;;;;5007121;28;20379;-70
2023/07/16 09:42:43;;;;;;;0.75;0.40;;;21.70;99.90;;;;;;5003794;28;20041;-70
2023/07/16 09:45:18;;;;;;;0.40;0.30;;;21.80;99.90;;;;;;5010202;28;20041;-71
2023/07/16 09:47:44;;;;;;;0.30;0.20;;;21.80;99.90;;;;;;5006726;28;20044;-70
2023/07/16 09:50:11;;;;;;;0.47;0.28;;;21.90;99.90;;;;;;5006223;28;20130;-70
2023/07/16 09:52:39;;;;;;;0.40;0.30;;;22.10;99.90;;;;;;4996366;28;20416;-71
2023/07/16 09:55:07;;;;;;;0.45;0.30;;;22.40;99.90;;;;;;5000747;28;20117;-71
2023/07/16 09:57:36;;;;;;;0.22;0.15;;;22.80;99.90;;;;;;5003277;28;20043;-70
2023/07/16 10:00:14;;;;;;;1.35;0.43;;;23.10;99.90;;;;;;4998046;28;20108;-70
2023/07/16 10:02:41;;;;;;;0.20;0.10;;;23.10;99.90;;;;;;5002417;28;20038;-71
2023/07/16 10:05:17;;;;;;;0.17;0.13;;;22.80;99.90;;;;;;5005182;28;20446;-70
2023/07/16 10:07:53;;;;;;;0.52;0.22;;;22.60;99.90;;;;;;5010893;28;20103;-71
2023/07/16 10:10:19;;;;;;;0.28;0.10;;;22.40;99.90;;;;;;5010117;28;20538;-70
2023/07/16 10:13:01;;;;;;;1.55;0.10;;;22.30;99.90;;;;;;5001388;28;20094;-71
2023/07/16 10:15:28;;;;;;;0.40;0.17;;;22.20;99.90;;;;;;5001939;28;20605;-70
2023/07/16 10:17:55;;;;;;;0.50;0.22;;;22.00;99.90;;;;;;5000441;28;20470;-70
2023/07/16 10:20:36;;;;;;;0.30;0.20;;;21.90;99.90;;;;;;5001167;28;20039;-69
2023/07/16 10:23:16;;;;;;;0.45;0.20;;;21.90;99.90;;;;;;4999811;28;20099;-70
2023/07/16 10:26:01;;;;;;;0.17;0.10;;;21.70;99.90;;;;;;5005980;28;20794;-70
2023/07/16 10:28:27;;;;;;;0.50;0.30;;;21.70;99.90;;;;;;4997220;28;20447;-70
2023/07/16 10:30:53;;;;;;;0.32;0.20;;;21.60;99.90;;;;;;4996775;28;20050;-70
2023/07/16 10:33:19;;;;;;;0.45;0.22;;;21.60;99.90;;;;;;5000597;28;20052;-70
2023/07/16 10:35:45;;;;;;;0.40;0.20;;;21.40;99.90;;;;;;4998743;28;20046;-70
2023/07/16 10:38:11;;;;;;;0.85;0.20;;;21.50;99.90;;;;;;4997769;28;20046;-70
2023/07/16 10:40:42;;;;;;;0.75;0.28;;;21.90;99.90;;;;;;4992506;28;20046;-70
2023/07/16 10:43:08;;;;;;;2.35;0.30;;;22.30;99.90;;;;;;4999086;28;20057;-70
2023/07/16 10:45:34;;;;;;;2.03;0.60;;;22.40;99.90;;;;;;4998979;28;20045;-70
2023/07/16 10:48:00;;;;;;;1.45;0.10;;;22.50;99.90;;;;;;4996661;28;20060;-70
2023/07/16 10:50:25;;;;;;;0.50;0.20;;;22.50;99.90;;;;;;5004904;28;20042;-70
2023/07/16 10:52:56;;;;;;;0.75;0.35;;;22.60;99.90;;;;;;5004905;28;20030;-70
2023/07/16 10:55:22;;;;;;;0.68;0.22;;;22.70;99.90;;;;;;4998599;28;20057;-69
2023/07/16 10:57:49;;;;;;;0.30;0.20;;;22.90;99.90;;;;;;4992843;28;20068;-70
2023/07/16 11:00:16;;;;;;;0.10;0.00;;;22.90;99.90;;;;;;4994584;28;20041;-70
2023/07/16 11:02:43;;;;;;;1.20;0.60;;;22.90;99.90;;;;;;5002440;28;20042;-70
2023/07/16 11:05:13;;;;;;;0.93;0.40;;;22.70;99.90;;;;;;4996333;28;20038;-69
2023/07/16 11:07:44;;;;;;;0.20;0.20;;;22.70;99.90;;;;;;4992680;28;20050;-69
2023/07/16 11:10:10;;;;;;;0.40;0.20;;;22.70;99.90;;;;;;4995249;28;20064;-69
2023/07/16 11:12:36;;;;;;;0.40;0.20;;;22.80;99.90;;;;;;5001883;28;20046;-69
2023/07/16 11:15:02;;;;;;;0.40;0.05;;;22.80;99.90;;;;;;4995221;28;20042;-70
2023/07/16 11:17:28;;;;;;;0.10;0.10;;;22.70;99.90;;;;;;4994190;28;20494;-70
2023/07/16 11:19:55;;;;;;;1.55;0.25;;;22.60;99.90;;;;;;4998197;28;20046;-69
2023/07/16 11:22:29;;;;;;;0.17;0.10;;;22.50;99.90;;;;;;5001291;28;20129;-69
2023/07/16 11:24:55;;;;;;;0.30;0.15;;;22.40;99.90;;;;;;5005794;28;20407;-70
2023/07/16 11:27:27;;;;;;;0.88;0.40;;;22.20;99.90;;;;;;5000355;28;20038;-70
2023/07/16 11:29:55;;;;;;;0.70;0.40;;;22.00;99.90;;;;;;5002075;28;20042;-70
2023/07/16 11:32:36;;;;;;;0.70;0.20;;;21.90;99.90;;;;;;5004296;28;20056;-70
2023/07/16 11:35:04;;;;;;;0.25;0.17;;;21.70;99.90;;;;;;4997036;28;20585;-69
2023/07/16 11:37:32;;;;;;;0.65;0.40;;;21.50;99.90;;;;;;4995141;28;20136;-70
2023/07/16 11:40:04;;;;;;;0.10;0.10;;;21.50;99.90;;;;;;5006519;28;20034;-70
2023/07/16 11:42:30;;;;;;;0.22;0.10;;;21.40;99.90;;;;;;4995843;28;20096;-70
2023/07/16 11:44:57;;;;;;;1.50;0.38;;;21.30;99.90;;;;;;5002937;28;20486;-70
2023/07/16 11:47:23;;;;;;;0.60;0.20;;;21.30;99.90;;;;;;4998320;28;20453;-70
2023/07/16 11:49:49;;;;;;;0.47;0.20;;;21.20;99.90;;;;;;5002371;28;20042;-70
2023/07/16 11:52:26;;;;;;;0.00;0.00;;;21.20;99.90;;;;;;5004972;28;20038;-70
2023/07/16 11:54:52;;;;;;;0.25;0.13;;;21.10;99.90;;;;;;5000829;28;20475;-70
2023/07/16 11:57:18;;;;;;;0.40;0.20;;;21.10;99.90;;;;;;4993326;28;20038;-69
2023/07/16 11:59:44;;;;;;;1.17;0.20;;;21.30;99.90;;;;;;5004271;28;20057;-70
2023/07/16 12:02:10;;;;;;;0.30;0.15;;;21.70;99.90;;;;;;4998560;28;20050;-70
2023/07/16 12:04:36;;;;;;;0.47;0.25;;;22.20;99.90;;;;;;4995755;28;20065;-69
2023/07/16 12:07:02;;;;;;;0.47;0.20;;;23.00;99.90;;;;;;5002451;28;20081;-70
2023/07/16 12:09:28;;;;;;;0.65;0.13;;;23.40;99.90;;;;;;4999005;28;20053;-70
2023/07/16 12:11:54;;;;;;;0.45;0.15;;;23.40;99.90;;;;;;5003507;28;20454;-69
2023/07/16 12:14:20;;;;;;;0.20;0.10;;;23.20;99.90;;;;;;4993130;28;20073;-69
2023/07/16 12:16:45;;;;;;;0.10;0.10;;;22.90;99.90;;;;;;4996352;28;20050;-69
2023/07/16 12:19:11;;;;;;;0.30;0.22;;;22.70;99.90;;;;;;4998271;28;20042;-69
2023/07/16 12:21:37;;;;;;;0.60;0.30;;;22.50;99.90;;;;;;5001875;28;20077;-69
2023/07/16 12:24:03;;;;;;;0.35;0.22;;;22.40;99.90;;;;;;5007339;28;20483;-69
2023/07/16 12:26:28;;;;;;;0.10;0.10;;;22.30;99.90;;;;;;5001400;28;20529;-70
2023/07/16 12:28:55;;;;;;;0.88;0.10;;;22.10;99.90;;;;;;5000749;28;20049;-70
2023/07/16 12:31:21;;;;;;;0.57;0.30;;;22.00;99.90;;;;;;4996265;28;20060;-70
2023/07/16 12:33:47;;;;;;;0.20;0.10;;;21.70;99.90;;;;;;4997146;28;20439;-71
2023/07/16 12:36:14;;;;;;;0.57;0.30;;;21.50;99.90;;;;;;5003290;28;20113;-70
2023/07/16 12:38:40;;;;;;;0.63;0.20;;;21.30;99.90;;;;;;5001809;28;20129;-70
2023/07/16 12:41:06;;;;;;;0.85;0.20;;;21.30;99.90;;;;;;4998264;28;20536;-70
2023/07/16 12:43:33;;;;;;;0.25;0.10;;;21.30;99.90;;;;;;4996225;28;20050;-70
2023/07/16 12:46:04;;;;;;;0.40;0.17;;;21.30;99.90;;;;;;5000355;28;20069;-70